sensor_id;sensor_type;location;lat;lon;timestamp;temperature;humidity
46037;DHT22;31769;49.304;8.428;2022-10-16T00:01:31;16.60;99.90
46037;DHT22;31769;49.304;8.428;2022-10-16T00:04:32;16.60;99.90
46037;DHT22;31769;49.304;8.428;2022-10-16T00:07:32;16.60;99.90
46037;DHT22;31769;49.304;8.428;2022-10-16T00:10:33;16.60;99.90
46037;DHT22;31769;49.304;8.428;2022-10-16T00:13:35;16.60;99.90
46037;DHT22;31769;49.304;8.428;2022-10-16T00:16:36;16.60;99.90
46037;DHT22;31769;49.304;8.428;2022-10-16T00:19:37;16.60;99.90
46037;DHT22;31769;49.304;8.428;2022-10-16T00:22:37;16.60;99.90
46037;DHT22;31769;49.304;8.428;2022-10-16T00:25:38;16.60;99.90
46037;DHT22;31769;49.304;8.428;2022-10-16T00:28:39;16.50;99.90
46037;DHT22;31769;49.304;8.428;2022-10-16T00:31:40;16.60;99.90
46037;DHT22;31769;49.304;8.428;2022-10-16T00:34:41;16.50;99.90
46037;DHT22;31769;49.304;8.428;2022-10-16T00:37:41;16.50;99.90
46037;DHT22;31769;49.304;8.428;2022-10-16T00:40:42;16.50;99.90
46037;DHT22;31769;49.304;8.428;2022-10-16T00:43:54;16.50;99.90
46037;DHT22;31769;49.304;8.428;2022-10-16T00:46:55;16.50;99.90
46037;DHT22;31769;49.304;8.428;2022-10-16T00:50:02;16.50;99.90
46037;DHT22;31769;49.304;8.428;2022-10-16T00:53:05;16.50;99.90
46037;DHT22;31769;49.304;8.428;2022-10-16T00:56:06;16.50;99.90
46037;DHT22;31769;49.304;8.428;2022-10-16T00:59:19;16.50;99.90
46037;DHT22;31769;49.304;8.428;2022-10-16T01:02:19;16.50;99.90
46037;DHT22;31769;49.304;8.428;2022-10-16T01:05:33;16.50;99.90
46037;DHT22;31769;49.304;8.428;2022-10-16T01:12:03;16.50;99.90
46037;DHT22;31769;49.304;8.428;2022-10-16T01:18:32;16.50;99.90
46037;DHT22;31769;49.304;8.428;2022-10-16T01:21:38;16.50;99.90
46037;DHT22;31769;49.304;8.428;2022-10-16T01:24:44;16.50;99.90
46037;DHT22;31769;49.304;8.428;2022-10-16T01:27:47;16.50;99.90
46037;DHT22;31769;49.304;8.428;2022-10-16T01:30:53;16.50;99.90
46037;DHT22;31769;49.304;8.428;2022-10-16T01:34:04;16.50;99.90
46037;DHT22;31769;49.304;8.428;2022-10-16T01:37:11;16.50;99.90
46037;DHT22;31769;49.304;8.428;2022-10-16T01:40:15;16.50;99.90
46037;DHT22;31769;49.304;8.428;2022-10-16T01:43:25;16.50;99.90
46037;DHT22;31769;49.304;8.428;2022-10-16T01:46:27;16.50;99.90
46037;DHT22;31769;49.304;8.428;2022-10-16T01:49:32;16.50;99.90
46037;DHT22;31769;49.304;8.428;2022-10-16T01:52:37;16.50;99.90
46037;DHT22;31769;49.304;8.428;2022-10-16T01:55:40;16.50;99.90
46037;DHT22;31769;49.304;8.428;2022-10-16T01:58:57;16.50;99.90
46037;DHT22;31769;49.304;8.428;2022-10-16T02:02:04;16.50;99.90
46037;DHT22;31769;49.304;8.428;2022-10-16T02:05:12;16.50;99.90
46037;DHT22;31769;49.304;8.428;2022-10-16T02:08:16;16.50;99.90
46037;DHT22;31769;49.304;8.428;2022-10-16T02:11:17;16.50;99.90
46037;DHT22;31769;49.304;8.428;2022-10-16T02:14:19;16.60;99.90
46037;DHT22;31769;49.304;8.428;2022-10-16T02:17:20;16.50;99.90
46037;DHT22;31769;49.304;8.428;2022-10-16T02:20:25;16.20;99.90
46037;DHT22;31769;49.304;8.428;2022-10-16T02:30:25;16.40;99.90
46037;DHT22;31769;49.304;8.428;2022-10-16T02:33:28;16.40;99.90
46037;DHT22;31769;49.304;8.428;2022-10-16T02:36:29;16.40;99.90
46037;DHT22;31769;49.304;8.428;2022-10-16T02:39:31;16.40;99.90
46037;DHT22;31769;49.304;8.428;2022-10-16T02:42:36;16.40;99.90
46037;DHT22;31769;49.304;8.428;2022-10-16T02:45:37;16.40;99.90
46037;DHT22;31769;49.304;8.428;2022-10-16T02:48:38;16.40;99.90
46037;DHT22;31769;49.304;8.428;2022-10-16T02:51:39;16.30;99.90
46037;DHT22;31769;49.304;8.428;2022-10-16T02:54:40;16.40;99.90
46037;DHT22;31769;49.304;8.428;2022-10-16T02:57:40;16.30;99.90
46037;DHT22;31769;49.304;8.428;2022-10-16T03:00:41;16.40;99.90
46037;DHT22;31769;49.304;8.428;2022-10-16T03:03:42;16.60;99.90
46037;DHT22;31769;49.304;8.428;2022-10-16T03:06:43;16.40;99.90
46037;DHT22;31769;49.304;8.428;2022-10-16T03:09:44;16.40;99.90
46037;DHT22;31769;49.304;8.428;2022-10-16T03:12:44;16.40;99.90
46037;DHT22;31769;49.304;8.428;2022-10-16T03:15:45;16.30;99.90
46037;DHT22;31769;49.304;8.428;2022-10-16T03:18:49;16.40;99.90
46037;DHT22;31769;49.304;8.428;2022-10-16T03:21:50;16.40;99.90
46037;DHT22;31769;49.304;8.428;2022-10-16T03:24:50;16.30;99.90
46037;DHT22;31769;49.304;8.428;2022-10-16T03:27:52;16.40;99.90
46037;DHT22;31769;49.304;8.428;2022-10-16T03:30:52;16.30;99.90
46037;DHT22;31769;49.304;8.428;2022-10-16T03:33:53;16.30;99.90
46037;DHT22;31769;49.304;8.428;2022-10-16T03:36:54;16.70;99.90
46037;DHT22;31769;49.304;8.428;2022-10-16T03:39:54;16.60;99.90
46037;DHT22;31769;49.304;8.428;2022-10-16T03:42:55;16.30;99.90
46037;DHT22;31769;49.304;8.428;2022-10-16T03:45:57;16.30;99.90
46037;DHT22;31769;49.304;8.428;2022-10-16T03:48:58;16.20;99.90
46037;DHT22;31769;49.304;8.428;2022-10-16T03:51:58;16.30;99.90
46037;DHT22;31769;49.304;8.428;2022-10-16T03:54:59;16.30;99.90
46037;DHT22;31769;49.304;8.428;2022-10-16T03:58:00;16.30;99.90
46037;DHT22;31769;49.304;8.428;2022-10-16T04:01:00;16.40;99.90
46037;DHT22;31769;49.304;8.428;2022-10-16T04:04:01;16.90;99.90
46037;DHT22;31769;49.304;8.428;2022-10-16T04:07:02;16.20;99.90
46037;DHT22;31769;49.304;8.428;2022-10-16T04:10:03;16.20;99.90
46037;DHT22;31769;49.304;8.428;2022-10-16T04:13:04;16.20;99.90
46037;DHT22;31769;49.304;8.428;2022-10-16T04:16:05;16.20;99.90
46037;DHT22;31769;49.304;8.428;2022-10-16T04:19:05;16.20;99.90
46037;DHT22;31769;49.304;8.428;2022-10-16T04:22:06;16.20;99.90
46037;DHT22;31769;49.304;8.428;2022-10-16T04:25:07;16.20;99.90
46037;DHT22;31769;49.304;8.428;2022-10-16T04:28:08;16.20;99.90
46037;DHT22;31769;49.304;8.428;2022-10-16T04:31:08;16.00;99.90
46037;DHT22;31769;49.304;8.428;2022-10-16T04:34:09;16.20;99.90
46037;DHT22;31769;49.304;8.428;2022-10-16T04:37:09;16.20;99.90
46037;DHT22;31769;49.304;8.428;2022-10-16T04:40:10;16.20;99.90
46037;DHT22;31769;49.304;8.428;2022-10-16T04:43:11;16.20;99.90
46037;DHT22;31769;49.304;8.428;2022-10-16T04:46:12;16.20;99.90
46037;DHT22;31769;49.304;8.428;2022-10-16T04:49:12;16.20;99.90
46037;DHT22;31769;49.304;8.428;2022-10-16T04:52:13;16.20;99.90
46037;DHT22;31769;49.304;8.428;2022-10-16T04:55:14;16.20;99.90
46037;DHT22;31769;49.304;8.428;2022-10-16T04:58:15;16.20;99.90
46037;DHT22;31769;49.304;8.428;2022-10-16T05:01:16;16.20;99.90
46037;DHT22;31769;49.304;8.428;2022-10-16T05:04:16;16.20;99.90
46037;DHT22;31769;49.304;8.428;2022-10-16T05:07:17;16.20;99.90
46037;DHT22;31769;49.304;8.428;2022-10-16T05:10:18;16.20;99.90
46037;DHT22;31769;49.304;8.428;2022-10-16T05:13:19;16.20;99.90
46037;DHT22;31769;49.304;8.428;2022-10-16T05:16:19;16.20;99.90
46037;DHT22;31769;49.304;8.428;2022-10-16T05:19:20;16.20;99.90
46037;DHT22;31769;49.304;8.428;2022-10-16T05:22:20;16.20;99.90
46037;DHT22;31769;49.304;8.428;2022-10-16T05:25:21;16.20;99.90
46037;DHT22;31769;49.304;8.428;2022-10-16T05:28:22;16.20;99.90
46037;DHT22;31769;49.304;8.428;2022-10-16T05:31:22;16.20;99.90
46037;DHT22;31769;49.304;8.428;2022-10-16T05:34:23;16.20;99.90
46037;DHT22;31769;49.304;8.428;2022-10-16T05:37:24;16.20;99.90
46037;DHT22;31769;49.304;8.428;2022-10-16T05:40:24;16.20;99.90
46037;DHT22;31769;49.304;8.428;2022-10-16T05:43:27;16.30;99.90
46037;DHT22;31769;49.304;8.428;2022-10-16T05:46:28;16.30;99.90
46037;DHT22;31769;49.304;8.428;2022-10-16T05:49:28;16.30;99.90
46037;DHT22;31769;49.304;8.428;2022-10-16T05:52:29;16.30;99.90
46037;DHT22;31769;49.304;8.428;2022-10-16T05:55:29;16.40;99.90
46037;DHT22;31769;49.304;8.428;2022-10-16T05:58:35;16.30;99.90
46037;DHT22;31769;49.304;8.428;2022-10-16T06:01:36;16.30;99.90
46037;DHT22;31769;49.304;8.428;2022-10-16T06:04:37;16.30;99.90
46037;DHT22;31769;49.304;8.428;2022-10-16T06:07:37;16.30;99.90
46037;DHT22;31769;49.304;8.428;2022-10-16T06:10:38;16.30;99.90
46037;DHT22;31769;49.304;8.428;2022-10-16T06:13:39;16.30;99.90
46037;DHT22;31769;49.304;8.428;2022-10-16T06:16:42;16.30;99.90
46037;DHT22;31769;49.304;8.428;2022-10-16T06:19:43;16.30;99.90
46037;DHT22;31769;49.304;8.428;2022-10-16T06:22:43;16.20;99.90
46037;DHT22;31769;49.304;8.428;2022-10-16T06:25:44;16.20;99.90
46037;DHT22;31769;49.304;8.428;2022-10-16T06:28:45;16.10;99.90
46037;DHT22;31769;49.304;8.428;2022-10-16T06:31:45;16.10;99.90
46037;DHT22;31769;49.304;8.428;2022-10-16T06:34:46;16.10;99.90
46037;DHT22;31769;49.304;8.428;2022-10-16T06:37:47;16.10;99.90
46037;DHT22;31769;49.304;8.428;2022-10-16T06:40:47;16.10;99.90
46037;DHT22;31769;49.304;8.428;2022-10-16T06:43:49;16.10;99.90
46037;DHT22;31769;49.304;8.428;2022-10-16T06:46:50;16.10;99.90
46037;DHT22;31769;49.304;8.428;2022-10-16T06:49:50;16.20;99.90
46037;DHT22;31769;49.304;8.428;2022-10-16T06:52:51;16.30;99.90
46037;DHT22;31769;49.304;8.428;2022-10-16T06:55:51;16.40;99.90
46037;DHT22;31769;49.304;8.428;2022-10-16T06:58:53;16.50;99.90
46037;DHT22;31769;49.304;8.428;2022-10-16T07:01:54;16.50;99.90
46037;DHT22;31769;49.304;8.428;2022-10-16T07:04:54;16.60;99.90
46037;DHT22;31769;49.304;8.428;2022-10-16T07:07:57;16.60;99.90
46037;DHT22;31769;49.304;8.428;2022-10-16T07:11:02;16.60;99.90
46037;DHT22;31769;49.304;8.428;2022-10-16T07:14:03;16.70;99.90
46037;DHT22;31769;49.304;8.428;2022-10-16T07:17:04;16.70;99.90
46037;DHT22;31769;49.304;8.428;2022-10-16T07:20:05;16.80;99.90
46037;DHT22;31769;49.304;8.428;2022-10-16T07:23:06;16.80;99.90
46037;DHT22;31769;49.304;8.428;2022-10-16T07:26:07;16.90;99.90
46037;DHT22;31769;49.304;8.428;2022-10-16T07:29:13;17.00;99.90
46037;DHT22;31769;49.304;8.428;2022-10-16T07:32:14;17.00;99.90
46037;DHT22;31769;49.304;8.428;2022-10-16T07:35:15;17.10;99.90
46037;DHT22;31769;49.304;8.428;2022-10-16T07:38:16;17.10;99.90
46037;DHT22;31769;49.304;8.428;2022-10-16T07:41:18;17.20;99.90
46037;DHT22;31769;49.304;8.428;2022-10-16T07:44:20;17.30;99.90
46037;DHT22;31769;49.304;8.428;2022-10-16T07:47:20;17.30;99.90
46037;DHT22;31769;49.304;8.428;2022-10-16T07:50:21;17.40;99.90
46037;DHT22;31769;49.304;8.428;2022-10-16T07:53:22;17.30;99.90
46037;DHT22;31769;49.304;8.428;2022-10-16T07:56:23;17.40;99.90
46037;DHT22;31769;49.304;8.428;2022-10-16T07:59:23;17.50;99.90
46037;DHT22;31769;49.304;8.428;2022-10-16T08:02:24;17.50;99.90
46037;DHT22;31769;49.304;8.428;2022-10-16T08:05:26;17.60;99.90
46037;DHT22;31769;49.304;8.428;2022-10-16T08:08:27;17.80;99.90
46037;DHT22;31769;49.304;8.428;2022-10-16T08:11:28;17.70;99.90
46037;DHT22;31769;49.304;8.428;2022-10-16T08:14:29;17.60;99.90
46037;DHT22;31769;49.304;8.428;2022-10-16T08:17:30;17.50;99.90
46037;DHT22;31769;49.304;8.428;2022-10-16T08:20:32;17.60;99.90
46037;DHT22;31769;49.304;8.428;2022-10-16T08:23:33;17.50;99.90
46037;DHT22;31769;49.304;8.428;2022-10-16T08:26:34;17.50;99.90
46037;DHT22;31769;49.304;8.428;2022-10-16T08:29:34;17.60;99.90
46037;DHT22;31769;49.304;8.428;2022-10-16T08:32:35;17.60;99.90
46037;DHT22;31769;49.304;8.428;2022-10-16T08:35:36;17.70;99.90
46037;DHT22;31769;49.304;8.428;2022-10-16T08:38:37;17.70;99.90
46037;DHT22;31769;49.304;8.428;2022-10-16T08:45:34;17.60;99.90
46037;DHT22;31769;49.304;8.428;2022-10-16T08:48:50;17.60;99.90
46037;DHT22;31769;49.304;8.428;2022-10-16T08:51:51;17.70;99.90
46037;DHT22;31769;49.304;8.428;2022-10-16T08:54:53;17.90;99.90
46037;DHT22;31769;49.304;8.428;2022-10-16T08:57:55;18.10;99.90
46037;DHT22;31769;49.304;8.428;2022-10-16T09:00:59;18.10;99.90
46037;DHT22;31769;49.304;8.428;2022-10-16T09:04:04;18.30;99.90
46037;DHT22;31769;49.304;8.428;2022-10-16T09:07:32;18.60;99.90
46037;DHT22;31769;49.304;8.428;2022-10-16T09:23:37;19.20;99.90
46037;DHT22;31769;49.304;8.428;2022-10-16T09:26:38;19.30;99.90
46037;DHT22;31769;49.304;8.428;2022-10-16T09:29:39;19.40;99.90
46037;DHT22;31769;49.304;8.428;2022-10-16T09:32:42;19.70;99.90
46037;DHT22;31769;49.304;8.428;2022-10-16T09:35:51;19.90;99.90
46037;DHT22;31769;49.304;8.428;2022-10-16T09:39:04;20.10;99.90
46037;DHT22;31769;49.304;8.428;2022-10-16T09:42:05;20.40;99.90
46037;DHT22;31769;49.304;8.428;2022-10-16T09:45:20;20.70;99.90
46037;DHT22;31769;49.304;8.428;2022-10-16T09:48:22;20.90;99.90
46037;DHT22;31769;49.304;8.428;2022-10-16T09:51:32;21.20;99.90
46037;DHT22;31769;49.304;8.428;2022-10-16T09:54:33;21.20;99.90
46037;DHT22;31769;49.304;8.428;2022-10-16T09:57:34;20.90;99.90
46037;DHT22;31769;49.304;8.428;2022-10-16T10:00:34;20.70;99.90
46037;DHT22;31769;49.304;8.428;2022-10-16T10:03:41;20.70;99.90
46037;DHT22;31769;49.304;8.428;2022-10-16T10:06:49;20.80;99.90
46037;DHT22;31769;49.304;8.428;2022-10-16T10:09:50;20.60;99.90
46037;DHT22;31769;49.304;8.428;2022-10-16T10:12:50;20.70;99.90
46037;DHT22;31769;49.304;8.428;2022-10-16T10:15:51;21.10;99.90
46037;DHT22;31769;49.304;8.428;2022-10-16T10:19:00;21.50;99.90
46037;DHT22;31769;49.304;8.428;2022-10-16T10:22:01;21.90;99.90
46037;DHT22;31769;49.304;8.428;2022-10-16T10:35:12;22.40;99.90
46037;DHT22;31769;49.304;8.428;2022-10-16T10:42:00;22.60;99.90
46037;DHT22;31769;49.304;8.428;2022-10-16T10:45:36;22.70;99.90
46037;DHT22;31769;49.304;8.428;2022-10-16T10:52:42;22.40;99.90
46037;DHT22;31769;49.304;8.428;2022-10-16T10:55:53;22.60;99.90
46037;DHT22;31769;49.304;8.428;2022-10-16T11:02:32;23.20;99.90
46037;DHT22;31769;49.304;8.428;2022-10-16T11:11:57;23.90;99.90
46037;DHT22;31769;49.304;8.428;2022-10-16T11:15:27;24.10;99.90
46037;DHT22;31769;49.304;8.428;2022-10-16T11:28:45;24.70;99.90
46037;DHT22;31769;49.304;8.428;2022-10-16T11:31:55;24.60;99.90
46037;DHT22;31769;49.304;8.428;2022-10-16T11:35:05;24.40;99.90
46037;DHT22;31769;49.304;8.428;2022-10-16T11:38:20;24.40;99.90
46037;DHT22;31769;49.304;8.428;2022-10-16T11:45:23;23.60;99.90
46037;DHT22;31769;49.304;8.428;2022-10-16T11:54:46;23.50;99.90
46037;DHT22;31769;49.304;8.428;2022-10-16T11:57:59;23.60;99.90
46037;DHT22;31769;49.304;8.428;2022-10-16T12:04:30;22.80;99.90
46037;DHT22;31769;49.304;8.428;2022-10-16T12:07:40;22.40;99.90
46037;DHT22;31769;49.304;8.428;2022-10-16T12:10:45;22.10;99.90
46037;DHT22;31769;49.304;8.428;2022-10-16T12:13:46;22.00;99.90
46037;DHT22;31769;49.304;8.428;2022-10-16T12:20:19;22.00;99.90
46037;DHT22;31769;49.304;8.428;2022-10-16T12:23:20;21.90;99.90
46037;DHT22;31769;49.304;8.428;2022-10-16T12:26:28;21.90;99.90
46037;DHT22;31769;49.304;8.428;2022-10-16T12:29:40;22.00;99.90
46037;DHT22;31769;49.304;8.428;2022-10-16T12:32:42;22.20;99.90
46037;DHT22;31769;49.304;8.428;2022-10-16T12:35:44;22.10;99.90
46037;DHT22;31769;49.304;8.428;2022-10-16T12:38:50;22.00;99.90
46037;DHT22;31769;49.304;8.428;2022-10-16T12:42:03;21.80;99.90
46037;DHT22;31769;49.304;8.428;2022-10-16T12:45:24;21.70;99.90
46037;DHT22;31769;49.304;8.428;2022-10-16T12:48:26;21.70;99.90
46037;DHT22;31769;49.304;8.428;2022-10-16T12:54:35;21.80;99.90
46037;DHT22;31769;49.304;8.428;2022-10-16T12:58:05;21.70;99.90
46037;DHT22;31769;49.304;8.428;2022-10-16T13:04:51;21.60;99.90
46037;DHT22;31769;49.304;8.428;2022-10-16T13:08:50;21.70;99.90
46037;DHT22;31769;49.304;8.428;2022-10-16T13:15:19;21.40;99.90
46037;DHT22;31769;49.304;8.428;2022-10-16T13:18:29;21.20;99.90
46037;DHT22;31769;49.304;8.428;2022-10-16T13:22:03;21.10;99.90
46037;DHT22;31769;49.304;8.428;2022-10-16T13:25:46;21.00;99.90
46037;DHT22;31769;49.304;8.428;2022-10-16T13:28:50;20.90;99.90
46037;DHT22;31769;49.304;8.428;2022-10-16T13:31:51;20.90;99.90
46037;DHT22;31769;49.304;8.428;2022-10-16T13:34:52;20.90;99.90
46037;DHT22;31769;49.304;8.428;2022-10-16T13:38:15;20.90;99.90
46037;DHT22;31769;49.304;8.428;2022-10-16T13:41:18;20.90;99.90
46037;DHT22;31769;49.304;8.428;2022-10-16T13:44:19;20.90;99.90
46037;DHT22;31769;49.304;8.428;2022-10-16T13:47:26;21.00;99.90
46037;DHT22;31769;49.304;8.428;2022-10-16T13:50:26;21.00;99.90
46037;DHT22;31769;49.304;8.428;2022-10-16T13:53:27;21.00;99.90
46037;DHT22;31769;49.304;8.428;2022-10-16T13:56:31;20.90;99.90
46037;DHT22;31769;49.304;8.428;2022-10-16T13:59:34;20.80;99.90
46037;DHT22;31769;49.304;8.428;2022-10-16T14:02:37;20.70;99.90
46037;DHT22;31769;49.304;8.428;2022-10-16T14:06:03;20.70;99.90
46037;DHT22;31769;49.304;8.428;2022-10-16T14:09:14;20.70;99.90
46037;DHT22;31769;49.304;8.428;2022-10-16T14:12:19;20.60;99.90
46037;DHT22;31769;49.304;8.428;2022-10-16T14:15:20;20.60;99.90
46037;DHT22;31769;49.304;8.428;2022-10-16T14:18:23;20.60;99.90
46037;DHT22;31769;49.304;8.428;2022-10-16T14:21:25;20.60;99.90
46037;DHT22;31769;49.304;8.428;2022-10-16T14:24:32;20.60;99.90
46037;DHT22;31769;49.304;8.428;2022-10-16T14:27:36;20.60;99.90
46037;DHT22;31769;49.304;8.428;2022-10-16T14:30:37;20.80;99.90
46037;DHT22;31769;49.304;8.428;2022-10-16T14:33:38;20.90;99.90
46037;DHT22;31769;49.304;8.428;2022-10-16T14:36:40;21.10;99.90
46037;DHT22;31769;49.304;8.428;2022-10-16T14:39:42;21.40;99.90
46037;DHT22;31769;49.304;8.428;2022-10-16T14:42:49;21.70;99.90
46037;DHT22;31769;49.304;8.428;2022-10-16T14:45:52;22.10;99.90
46037;DHT22;31769;49.304;8.428;2022-10-16T14:49:15;22.60;99.90
46037;DHT22;31769;49.304;8.428;2022-10-16T14:52:17;23.90;99.90
46037;DHT22;31769;49.304;8.428;2022-10-16T14:55:18;26.50;99.90
46037;DHT22;31769;49.304;8.428;2022-10-16T14:58:21;29.20;99.90
46037;DHT22;31769;49.304;8.428;2022-10-16T15:01:22;30.20;99.90
46037;DHT22;31769;49.304;8.428;2022-10-16T15:04:23;30.10;99.90
46037;DHT22;31769;49.304;8.428;2022-10-16T15:07:24;30.10;99.90
46037;DHT22;31769;49.304;8.428;2022-10-16T15:10:27;31.60;97.90
46037;DHT22;31769;49.304;8.428;2022-10-16T15:13:28;31.10;96.50
46037;DHT22;31769;49.304;8.428;2022-10-16T15:16:30;29.70;97.70
46037;DHT22;31769;49.304;8.428;2022-10-16T15:19:31;28.10;99.90
46037;DHT22;31769;49.304;8.428;2022-10-16T15:22:31;27.00;99.90
46037;DHT22;31769;49.304;8.428;2022-10-16T15:25:39;26.00;99.90
46037;DHT22;31769;49.304;8.428;2022-10-16T15:28:42;25.20;99.90
46037;DHT22;31769;49.304;8.428;2022-10-16T15:31:42;24.40;99.90
46037;DHT22;31769;49.304;8.428;2022-10-16T15:34:43;23.80;99.90
46037;DHT22;31769;49.304;8.428;2022-10-16T15:37:44;23.40;99.90
46037;DHT22;31769;49.304;8.428;2022-10-16T15:40:46;23.10;99.90
46037;DHT22;31769;49.304;8.428;2022-10-16T15:43:50;23.00;99.90
46037;DHT22;31769;49.304;8.428;2022-10-16T15:46:54;23.70;99.90
46037;DHT22;31769;49.304;8.428;2022-10-16T15:49:55;26.30;99.90
46037;DHT22;31769;49.304;8.428;2022-10-16T15:52:55;28.60;99.90
46037;DHT22;31769;49.304;8.428;2022-10-16T15:55:56;29.50;99.90
46037;DHT22;31769;49.304;8.428;2022-10-16T15:58:57;28.40;99.90
46037;DHT22;31769;49.304;8.428;2022-10-16T16:01:58;27.00;99.90
46037;DHT22;31769;49.304;8.428;2022-10-16T16:04:59;26.40;99.90
46037;DHT22;31769;49.304;8.428;2022-10-16T16:07:59;27.10;99.90
46037;DHT22;31769;49.304;8.428;2022-10-16T16:14:06;28.10;99.90
46037;DHT22;31769;49.304;8.428;2022-10-16T16:17:07;27.30;99.90
46037;DHT22;31769;49.304;8.428;2022-10-16T16:20:08;26.00;99.90
46037;DHT22;31769;49.304;8.428;2022-10-16T16:23:09;24.80;99.90
46037;DHT22;31769;49.304;8.428;2022-10-16T16:26:20;23.80;99.90
46037;DHT22;31769;49.304;8.428;2022-10-16T16:29:24;23.10;99.90
46037;DHT22;31769;49.304;8.428;2022-10-16T16:32:24;22.50;99.90
46037;DHT22;31769;49.304;8.428;2022-10-16T16:35:25;22.10;99.90
46037;DHT22;31769;49.304;8.428;2022-10-16T16:38:26;21.70;99.90
46037;DHT22;31769;49.304;8.428;2022-10-16T16:41:28;21.40;99.90
46037;DHT22;31769;49.304;8.428;2022-10-16T16:44:30;21.10;99.90
46037;DHT22;31769;49.304;8.428;2022-10-16T16:47:31;20.90;99.90
46037;DHT22;31769;49.304;8.428;2022-10-16T16:50:36;20.70;99.90
46037;DHT22;31769;49.304;8.428;2022-10-16T16:53:37;20.50;99.90
46037;DHT22;31769;49.304;8.428;2022-10-16T16:56:38;20.30;99.90
46037;DHT22;31769;49.304;8.428;2022-10-16T16:59:38;20.20;99.90
46037;DHT22;31769;49.304;8.428;2022-10-16T17:02:39;20.10;99.90
46037;DHT22;31769;49.304;8.428;2022-10-16T17:05:43;20.00;99.90
46037;DHT22;31769;49.304;8.428;2022-10-16T17:08:44;20.00;99.90
46037;DHT22;31769;49.304;8.428;2022-10-16T17:11:44;19.80;99.90
46037;DHT22;31769;49.304;8.428;2022-10-16T17:14:46;19.80;99.90
46037;DHT22;31769;49.304;8.428;2022-10-16T17:17:46;19.70;99.90
46037;DHT22;31769;49.304;8.428;2022-10-16T17:20:47;19.60;99.90
46037;DHT22;31769;49.304;8.428;2022-10-16T17:23:51;19.50;99.90
46037;DHT22;31769;49.304;8.428;2022-10-16T17:26:52;19.40;99.90
46037;DHT22;31769;49.304;8.428;2022-10-16T17:29:53;19.30;99.90
46037;DHT22;31769;49.304;8.428;2022-10-16T17:32:54;19.20;99.90
46037;DHT22;31769;49.304;8.428;2022-10-16T17:35:54;19.20;99.90
46037;DHT22;31769;49.304;8.428;2022-10-16T17:39:06;19.20;99.90
46037;DHT22;31769;49.304;8.428;2022-10-16T17:42:08;19.10;99.90
46037;DHT22;31769;49.304;8.428;2022-10-16T17:45:08;19.00;99.90
46037;DHT22;31769;49.304;8.428;2022-10-16T17:48:09;18.90;99.90
46037;DHT22;31769;49.304;8.428;2022-10-16T17:51:12;18.90;99.90
46037;DHT22;31769;49.304;8.428;2022-10-16T17:54:13;18.80;99.90
46037;DHT22;31769;49.304;8.428;2022-10-16T17:57:14;18.80;99.90
46037;DHT22;31769;49.304;8.428;2022-10-16T18:00:15;18.70;99.90
46037;DHT22;31769;49.304;8.428;2022-10-16T18:03:16;18.70;99.90
46037;DHT22;31769;49.304;8.428;2022-10-16T18:06:16;18.60;99.90
46037;DHT22;31769;49.304;8.428;2022-10-16T18:09:18;18.60;99.90
46037;DHT22;31769;49.304;8.428;2022-10-16T18:12:20;18.60;99.90
46037;DHT22;31769;49.304;8.428;2022-10-16T18:15:20;18.50;99.90
46037;DHT22;31769;49.304;8.428;2022-10-16T18:18:21;18.50;99.90
46037;DHT22;31769;49.304;8.428;2022-10-16T18:21:22;18.50;99.90
46037;DHT22;31769;49.304;8.428;2022-10-16T18:24:24;18.40;99.90
46037;DHT22;31769;49.304;8.428;2022-10-16T18:27:25;18.40;99.90
46037;DHT22;31769;49.304;8.428;2022-10-16T18:30:25;18.30;99.90
46037;DHT22;31769;49.304;8.428;2022-10-16T18:33:27;18.30;99.90
46037;DHT22;31769;49.304;8.428;2022-10-16T18:36:32;18.30;99.90
46037;DHT22;31769;49.304;8.428;2022-10-16T18:39:33;18.20;99.90
46037;DHT22;31769;49.304;8.428;2022-10-16T18:42:33;18.20;99.90
46037;DHT22;31769;49.304;8.428;2022-10-16T18:45:34;18.10;99.90
46037;DHT22;31769;49.304;8.428;2022-10-16T18:48:35;18.10;99.90
46037;DHT22;31769;49.304;8.428;2022-10-16T18:51:39;18.10;99.90
46037;DHT22;31769;49.304;8.428;2022-10-16T18:54:40;18.00;99.90
46037;DHT22;31769;49.304;8.428;2022-10-16T18:57:40;18.00;99.90
46037;DHT22;31769;49.304;8.428;2022-10-16T19:00:41;17.90;99.90
46037;DHT22;31769;49.304;8.428;2022-10-16T19:03:42;17.80;99.90
46037;DHT22;31769;49.304;8.428;2022-10-16T19:06:45;17.70;99.90
46037;DHT22;31769;49.304;8.428;2022-10-16T19:09:46;17.70;99.90
46037;DHT22;31769;49.304;8.428;2022-10-16T19:12:47;17.60;99.90
46037;DHT22;31769;49.304;8.428;2022-10-16T19:15:48;17.60;99.90
46037;DHT22;31769;49.304;8.428;2022-10-16T19:18:50;17.60;99.90
46037;DHT22;31769;49.304;8.428;2022-10-16T19:21:51;17.60;99.90
46037;DHT22;31769;49.304;8.428;2022-10-16T19:25:00;17.50;99.90
46037;DHT22;31769;49.304;8.428;2022-10-16T19:28:01;17.50;99.90
46037;DHT22;31769;49.304;8.428;2022-10-16T19:31:09;17.50;99.90
46037;DHT22;31769;49.304;8.428;2022-10-16T19:34:13;17.50;99.90
46037;DHT22;31769;49.304;8.428;2022-10-16T19:37:14;17.40;99.90
46037;DHT22;31769;49.304;8.428;2022-10-16T19:40:14;17.40;99.90
46037;DHT22;31769;49.304;8.428;2022-10-16T19:43:15;17.30;99.90
46037;DHT22;31769;49.304;8.428;2022-10-16T19:46:18;17.30;99.90
46037;DHT22;31769;49.304;8.428;2022-10-16T19:49:20;17.30;99.90
46037;DHT22;31769;49.304;8.428;2022-10-16T19:52:21;17.30;99.90
46037;DHT22;31769;49.304;8.428;2022-10-16T19:55:22;17.20;99.90
46037;DHT22;31769;49.304;8.428;2022-10-16T19:58:23;17.20;99.90
46037;DHT22;31769;49.304;8.428;2022-10-16T20:01:26;17.20;99.90
46037;DHT22;31769;49.304;8.428;2022-10-16T20:04:27;17.20;99.90
46037;DHT22;31769;49.304;8.428;2022-10-16T20:07:27;17.10;99.90
46037;DHT22;31769;49.304;8.428;2022-10-16T20:10:28;17.10;99.90
46037;DHT22;31769;49.304;8.428;2022-10-16T20:13:30;17.10;99.90
46037;DHT22;31769;49.304;8.428;2022-10-16T20:16:31;17.10;99.90
46037;DHT22;31769;49.304;8.428;2022-10-16T20:19:31;17.10;99.90
46037;DHT22;31769;49.304;8.428;2022-10-16T20:22:33;17.10;99.90
46037;DHT22;31769;49.304;8.428;2022-10-16T20:25:39;17.10;99.90
46037;DHT22;31769;49.304;8.428;2022-10-16T20:28:40;17.10;99.90
46037;DHT22;31769;49.304;8.428;2022-10-16T20:31:41;17.10;99.90
46037;DHT22;31769;49.304;8.428;2022-10-16T20:34:42;17.10;99.90
46037;DHT22;31769;49.304;8.428;2022-10-16T20:37:45;17.10;99.90
46037;DHT22;31769;49.304;8.428;2022-10-16T20:40:48;17.00;99.90
46037;DHT22;31769;49.304;8.428;2022-10-16T20:43:50;17.00;99.90
46037;DHT22;31769;49.304;8.428;2022-10-16T20:46:53;17.00;99.90
46037;DHT22;31769;49.304;8.428;2022-10-16T20:49:54;16.90;99.90
46037;DHT22;31769;49.304;8.428;2022-10-16T20:52:56;16.90;99.90
46037;DHT22;31769;49.304;8.428;2022-10-16T20:56:00;16.80;99.90